createdAt,value
2024-04-21T00:01:48.057Z,97953.72
2024-04-21T00:04:15.420Z,97957.56
2024-04-21T00:06:42.764Z,97957.00
2024-04-21T00:09:09.956Z,97948.25
2024-04-21T00:11:37.121Z,97945.53
2024-04-21T00:14:04.495Z,97943.88
2024-04-21T00:16:31.776Z,97941.13
2024-04-21T00:18:59.043Z,97944.19
2024-04-21T00:21:26.395Z,97930.00
2024-04-21T00:23:53.585Z,97928.88
2024-04-21T00:26:20.824Z,97929.41
2024-04-21T00:28:50.877Z,97921.19
2024-04-21T00:31:18.197Z,97921.19
2024-04-21T00:33:45.515Z,97917.66
2024-04-21T00:36:12.748Z,97918.19
2024-04-21T00:38:39.916Z,97921.50
2024-04-21T00:41:07.097Z,97924.50
2024-04-21T00:43:34.255Z,97917.13
2024-04-21T00:46:02.220Z,97920.72
2024-04-21T00:48:29.430Z,97911.91
2024-04-21T00:50:57.259Z,97922.06
2024-04-21T00:53:25.428Z,97916.31
2024-04-21T00:55:53.937Z,97919.31
2024-04-21T00:58:21.194Z,97913.28
2024-04-21T01:00:48.690Z,97922.56
2024-04-21T01:03:16.352Z,97922.25
2024-04-21T01:05:43.531Z,97922.53
2024-04-21T01:08:11.151Z,97927.41
2024-04-21T01:10:38.342Z,97929.00
2024-04-21T01:13:13.151Z,97928.78
2024-04-21T01:15:40.747Z,97932.03
2024-04-21T01:18:08.786Z,97923.38
2024-04-21T01:20:36.599Z,97926.09
2024-04-21T01:23:04.711Z,97920.56
2024-04-21T01:25:31.873Z,97912.97
2024-04-21T01:27:59.132Z,97919.88
2024-04-21T01:30:26.406Z,97916.06
2024-04-21T01:32:53.799Z,97911.97
2024-04-21T01:35:21.056Z,97911.34
2024-04-21T01:37:48.219Z,97906.16
2024-04-21T01:40:17.135Z,97911.34
2024-04-21T01:42:44.528Z,97908.59
2024-04-21T01:45:11.890Z,97895.75
2024-04-21T01:47:39.153Z,97893.84
2024-04-21T01:50:11.316Z,97891.56
2024-04-21T01:52:39.423Z,97893.53
2024-04-21T01:55:06.832Z,97890.25
2024-04-21T01:57:34.050Z,97888.38
2024-04-21T02:00:01.229Z,97893.03
2024-04-21T02:02:28.514Z,97887.84
2024-04-21T02:04:55.848Z,97882.41
2024-04-21T02:07:23.074Z,97888.72
2024-04-21T02:09:50.284Z,97881.59
2024-04-21T02:12:17.480Z,97881.59
2024-04-21T02:14:44.640Z,97874.75
2024-04-21T02:17:11.816Z,97872.06
2024-04-21T02:19:39.000Z,97876.97
2024-04-21T02:22:06.164Z,97877.53
2024-04-21T02:24:41.587Z,97873.66
2024-04-21T02:27:08.743Z,97872.31
2024-04-21T02:29:35.959Z,97875.31
2024-04-21T02:32:03.270Z,97872.56
2024-04-21T02:34:30.466Z,97873.63
2024-04-21T02:36:57.655Z,97873.63
2024-04-21T02:39:24.828Z,97861.28
2024-04-21T02:41:51.996Z,97873.63
2024-04-21T02:44:19.160Z,97876.38
2024-04-21T02:46:47.225Z,97871.72
2024-04-21T02:49:15.498Z,97871.72
2024-04-21T02:51:42.769Z,97870.69
2024-04-21T02:54:09.975Z,97872.38
2024-04-21T02:56:37.144Z,97866.25
2024-04-21T02:59:04.350Z,97870.09
2024-04-21T03:01:31.694Z,97870.91
2024-04-21T03:03:59.126Z,97858.31
2024-04-21T03:06:26.489Z,97856.63
2024-04-21T03:08:53.650Z,97858.84
2024-04-21T03:11:20.823Z,97848.13
2024-04-21T03:13:48.471Z,97849.00
2024-04-21T03:16:15.939Z,97846.94
2024-04-21T03:18:43.245Z,97849.00
2024-04-21T03:21:10.395Z,97844.44
2024-04-21T03:23:37.648Z,97833.72
2024-04-21T03:26:05.370Z,97846.31
2024-04-21T03:28:32.608Z,97829.34
2024-04-21T03:31:01.600Z,97826.63
2024-04-21T03:33:29.119Z,97828.06
2024-04-21T03:36:03.881Z,97824.22
2024-04-21T03:38:31.765Z,97806.53
2024-04-21T03:40:58.944Z,97808.75
2024-04-21T03:43:26.233Z,97805.16
2024-04-21T03:45:53.530Z,97807.38
2024-04-21T03:48:20.717Z,97801.16
2024-04-21T03:50:47.902Z,97808.50
2024-04-21T03:53:18.034Z,97801.09
2024-04-21T03:55:45.610Z,97816.66
2024-04-21T03:58:13.785Z,97806.63
2024-04-21T04:00:41.045Z,97807.13
2024-04-21T04:03:08.413Z,97809.66
2024-04-21T04:05:35.634Z,97810.75
2024-04-21T04:08:02.801Z,97809.09
2024-04-21T04:10:30.022Z,97815.31
2024-04-21T04:12:57.686Z,97808.13
2024-04-21T04:15:24.882Z,97808.19
2024-04-21T04:17:52.109Z,97813.56
2024-04-21T04:20:19.619Z,97803.19
2024-04-21T04:22:46.997Z,97814.47
2024-04-21T04:25:14.310Z,97808.69
2024-04-21T04:27:41.567Z,97805.47
2024-04-21T04:30:09.213Z,97814.16
2024-04-21T04:32:36.489Z,97810.84
2024-04-21T04:35:03.900Z,97811.31
2024-04-21T04:37:31.132Z,97810.78
2024-04-21T04:39:58.334Z,97804.78
2024-04-21T04:42:25.517Z,97813.31
2024-04-21T04:44:52.911Z,97807.53
2024-04-21T04:47:20.097Z,97805.28
2024-04-21T04:49:47.316Z,97805.66
2024-04-21T04:52:14.494Z,97805.44
2024-04-21T04:54:41.665Z,97795.59
2024-04-21T04:57:08.834Z,97796.75
2024-04-21T04:59:36.015Z,97792.41
2024-04-21T05:02:03.192Z,97796.25
2024-04-21T05:04:30.530Z,97808.25
2024-04-21T05:06:57.765Z,97797.88
2024-04-21T05:09:25.045Z,97805.47
2024-04-21T05:11:52.215Z,97798.94
2024-04-21T05:14:19.437Z,97801.75
2024-04-21T05:16:46.765Z,97805.28
2024-04-21T05:19:14.052Z,97803.91
2024-04-21T05:21:41.260Z,97794.31
2024-04-21T05:24:08.422Z,97801.97
2024-04-21T05:26:36.129Z,97791.81
2024-04-21T05:29:03.283Z,97793.47
2024-04-21T05:31:30.446Z,97790.75
2024-04-21T05:33:57.644Z,97797.31
2024-04-21T05:36:24.875Z,97796.50
2024-04-21T05:38:53.255Z,97793.56
2024-04-21T05:41:20.508Z,97801.72
2024-04-21T05:43:48.237Z,97799.56
2024-04-21T05:46:15.500Z,97792.47
2024-04-21T05:48:42.666Z,97793.00
2024-04-21T05:51:09.860Z,97794.63
2024-04-21T05:53:37.033Z,97795.97
2024-04-21T05:56:04.984Z,97786.63
2024-04-21T05:58:32.256Z,97804.41
2024-04-21T06:01:01.195Z,97794.53
2024-04-21T06:03:28.462Z,97794.78
2024-04-21T06:05:55.620Z,97794.22
2024-04-21T06:08:22.787Z,97795.91
2024-04-21T06:10:49.936Z,97793.47
2024-04-21T06:13:17.119Z,97795.66
2024-04-21T06:15:44.281Z,97798.41
2024-04-21T06:18:11.500Z,97794.31
2024-04-21T06:20:38.717Z,97794.91
2024-04-21T06:23:05.904Z,97795.97
2024-04-21T06:25:33.070Z,97797.88
2024-04-21T06:28:00.361Z,97798.06
2024-04-21T06:30:27.606Z,97793.47
2024-04-21T06:32:54.847Z,97793.69
2024-04-21T06:35:22.041Z,97796.44
2024-04-21T06:37:49.211Z,97795.56
2024-04-21T06:40:17.452Z,97789.88
2024-04-21T06:42:44.859Z,97784.69
2024-04-21T06:45:12.526Z,97789.59
2024-04-21T06:47:39.732Z,97786.50
2024-04-21T06:50:06.984Z,97786.56
2024-04-21T06:52:34.386Z,97778.66
2024-04-21T06:55:01.600Z,97777.28
2024-04-21T06:57:28.928Z,97782.50
2024-04-21T06:59:56.094Z,97778.66
2024-04-21T07:02:23.376Z,97786.25
2024-04-21T07:04:50.689Z,97787.28
2024-04-21T07:07:18.997Z,97788.06
2024-04-21T07:09:46.378Z,97779.25
2024-04-21T07:12:13.569Z,97784.56
2024-04-21T07:14:40.744Z,97784.03
2024-04-21T07:17:08.738Z,97784.59
2024-04-21T07:19:35.982Z,97781.56
2024-04-21T07:22:03.285Z,97776.81
2024-04-21T07:24:32.580Z,97786.41
2024-04-21T07:27:01.227Z,97782.34
2024-04-21T07:29:28.381Z,97786.63
2024-04-21T07:31:55.988Z,97780.94
2024-04-21T07:34:23.444Z,97784.25
2024-04-21T07:36:50.700Z,97778.78
2024-04-21T07:39:18.958Z,97783.94
2024-04-21T07:41:46.205Z,97777.59
2024-04-21T07:44:13.374Z,97783.06
2024-04-21T07:46:40.610Z,97778.94
2024-04-21T07:49:07.945Z,97785.69
2024-04-21T07:51:35.170Z,97781.78
2024-04-21T07:54:02.376Z,97782.59
2024-04-21T07:56:29.577Z,97780.66
2024-04-21T07:58:56.788Z,97778.47
2024-04-21T08:01:24.080Z,97776.75
2024-04-21T08:03:51.372Z,97783.09
2024-04-21T08:06:18.616Z,97778.63
2024-04-21T08:08:48.112Z,97774.22
2024-04-21T08:11:17.863Z,97771.13
2024-04-21T08:13:45.344Z,97778.72
2024-04-21T08:16:12.589Z,97777.16
2024-04-21T08:18:39.866Z,97772.88
2024-04-21T08:21:07.247Z,97782.03
2024-04-21T08:23:34.445Z,97779.50
2024-04-21T08:26:04.223Z,97779.34
2024-04-21T08:28:31.620Z,97774.34
2024-04-21T08:30:58.886Z,97773.06
2024-04-21T08:33:28.043Z,97776.84
2024-04-21T08:35:59.262Z,97771.50
2024-04-21T08:38:27.172Z,97764.81
2024-04-21T08:40:54.333Z,97785.13
2024-04-21T08:43:27.346Z,97771.69
2024-04-21T08:45:56.412Z,97772.34
2024-04-21T08:48:26.714Z,97775.09
2024-04-21T08:50:53.945Z,97764.59
2024-04-21T08:53:21.137Z,97763.16
2024-04-21T08:55:50.097Z,97769.78
2024-04-21T08:58:18.741Z,97759.47
2024-04-21T09:00:49.614Z,97759.38
2024-04-21T09:03:17.832Z,97762.66
2024-04-21T09:05:51.307Z,97753.41
2024-04-21T09:08:18.461Z,97746.97
2024-04-21T09:10:45.714Z,97756.75
2024-04-21T09:13:13.007Z,97754.88
2024-04-21T09:15:40.186Z,97753.91
2024-04-21T09:18:08.011Z,97744.97
2024-04-21T09:20:38.281Z,97748.75
2024-04-21T09:23:08.861Z,97745.06
2024-04-21T09:25:37.775Z,97737.97
2024-04-21T09:28:05.669Z,97744.06
2024-04-21T09:30:32.882Z,97735.22
2024-04-21T09:33:00.168Z,97731.16
2024-04-21T09:35:27.413Z,97735.97
2024-04-21T09:37:55.314Z,97735.09
2024-04-21T09:40:24.785Z,97728.28
2024-04-21T09:42:52.275Z,97729.81
2024-04-21T09:45:21.079Z,97726.09
2024-04-21T09:47:48.992Z,97726.09
2024-04-21T09:50:16.501Z,97724.03
2024-04-21T09:52:48.556Z,97728.56
2024-04-21T09:55:16.010Z,97721.34
2024-04-21T09:57:45.366Z,97723.13
2024-04-21T10:00:14.517Z,97719.56
2024-04-21T10:02:48.287Z,97716.84
2024-04-21T10:05:19.690Z,97721.94
2024-04-21T10:07:52.256Z,97723.97
2024-04-21T10:10:24.856Z,97720.13
2024-04-21T10:12:53.027Z,97718.19
2024-04-21T10:15:22.809Z,97709.59
2024-04-21T10:17:57.641Z,97720.63
2024-04-21T10:20:36.061Z,97723.16
2024-04-21T10:23:12.619Z,97715.34
2024-04-21T10:25:45.346Z,97714.56
2024-04-21T10:28:25.960Z,97720.31
2024-04-21T10:31:03.540Z,97714.97
2024-04-21T10:33:30.483Z,97708.44
2024-04-21T10:35:57.629Z,97707.47
2024-04-21T10:38:25.226Z,97705.09
2024-04-21T10:40:52.559Z,97695.53
2024-04-21T10:43:26.308Z,97705.59
2024-04-21T10:45:59.200Z,97700.25
2024-04-21T10:48:26.610Z,97694.88
2024-04-21T10:50:54.644Z,97698.03
2024-04-21T10:53:22.006Z,97700.81
2024-04-21T10:55:54.966Z,97695.75
2024-04-21T10:58:22.712Z,97696.38
2024-04-21T11:00:50.737Z,97691.19
2024-04-21T11:03:18.151Z,97695.88
2024-04-21T11:06:02.394Z,97695.16
2024-04-21T11:08:29.981Z,97691.09
2024-04-21T11:10:57.983Z,97698.44
2024-04-21T11:13:25.444Z,97708.00
2024-04-21T11:15:52.777Z,97702.28
2024-04-21T11:18:20.552Z,97697.41
2024-04-21T11:20:48.159Z,97688.66
2024-04-21T11:23:20.110Z,97693.22
2024-04-21T11:25:53.750Z,97692.81
2024-04-21T11:28:23.631Z,97690.28
2024-04-21T11:31:04.754Z,97686.41
2024-04-21T11:33:35.533Z,97678.59
2024-04-21T11:36:21.271Z,97682.38
2024-04-21T11:38:50.501Z,97676.25
2024-04-21T11:41:17.714Z,97670.16
2024-04-21T11:43:54.090Z,97668.72
2024-04-21T11:46:21.282Z,97682.97
2024-04-21T11:48:53.377Z,97694.66
2024-04-21T11:51:21.022Z,97712.09
2024-04-21T11:53:49.072Z,97716.81
2024-04-21T11:56:16.241Z,97711.59
2024-04-21T11:58:43.438Z,97720.84
2024-04-21T12:01:10.827Z,97732.91
2024-04-21T12:03:38.268Z,97740.38
2024-04-21T12:06:05.502Z,97738.72
2024-04-21T12:08:32.700Z,97724.66
2024-04-21T12:10:59.973Z,97717.06
2024-04-21T12:13:27.249Z,97717.91
2024-04-21T12:15:54.548Z,97710.66
2024-04-21T12:18:21.739Z,97711.34
2024-04-21T12:20:48.918Z,97724.47
2024-04-21T12:23:16.059Z,97725.03
2024-04-21T12:25:43.243Z,97727.19
2024-04-21T12:28:10.478Z,97739.28
2024-04-21T12:30:39.788Z,97735.63
2024-04-21T12:33:08.813Z,97739.97
2024-04-21T12:35:36.143Z,97742.38
2024-04-21T12:38:04.949Z,97734.03
2024-04-21T12:40:32.220Z,97740.44
2024-04-21T12:42:59.496Z,97729.00
2024-04-21T12:45:26.708Z,97732.75
2024-04-21T12:47:53.972Z,97734.00
2024-04-21T12:50:21.319Z,97720.75
2024-04-21T12:52:48.515Z,97723.94
2024-04-21T12:55:15.743Z,97726.72
2024-04-21T12:57:43.761Z,97729.50
2024-04-21T13:00:11.348Z,97719.22
2024-04-21T13:02:39.675Z,97722.84
2024-04-21T13:05:07.671Z,97731.22
2024-04-21T13:07:34.959Z,97737.91
2024-04-21T13:10:02.296Z,97735.75
2024-04-21T13:12:30.591Z,97741.50
2024-04-21T13:14:58.105Z,97747.34
2024-04-21T13:17:25.350Z,97743.59
2024-04-21T13:19:52.569Z,97746.63
2024-04-21T13:22:20.874Z,97742.69
2024-04-21T13:24:48.101Z,97742.06
2024-04-21T13:27:15.326Z,97742.06
2024-04-21T13:29:45.393Z,97741.13
2024-04-21T13:32:12.697Z,97748.44
2024-04-21T13:34:39.875Z,97745.44
2024-04-21T13:37:07.102Z,97745.34
2024-04-21T13:39:34.344Z,97749.75
2024-04-21T13:42:01.737Z,97749.22
2024-04-21T13:44:28.932Z,97744.09
2024-04-21T13:46:56.122Z,97740.69
2024-04-21T13:49:23.308Z,97747.31
2024-04-21T13:51:50.579Z,97743.75
2024-04-21T13:54:17.836Z,97744.22
2024-04-21T13:56:45.061Z,97746.34
2024-04-21T13:59:13.820Z,97750.91
2024-04-21T14:01:41.045Z,97741.63
2024-04-21T14:04:08.291Z,97735.59
2024-04-21T14:06:35.538Z,97741.22
2024-04-21T14:09:02.814Z,97738.50
2024-04-21T14:11:30.738Z,97738.63
2024-04-21T14:13:59.216Z,97742.69
2024-04-21T14:16:27.779Z,97734.47
2024-04-21T14:18:56.923Z,97744.78
2024-04-21T14:21:25.739Z,97740.31
2024-04-21T14:23:52.931Z,97744.94
2024-04-21T14:26:20.106Z,97745.59
2024-04-21T14:28:47.337Z,97748.06
2024-04-21T14:31:14.537Z,97745.78
2024-04-21T14:33:41.747Z,97752.03
2024-04-21T14:36:08.902Z,97753.28
2024-04-21T14:38:36.047Z,97759.06
2024-04-21T14:41:03.210Z,97761.28
2024-04-21T14:43:33.406Z,97775.38
2024-04-21T14:46:00.853Z,97785.00
2024-04-21T14:48:28.141Z,97796.81
2024-04-21T14:50:58.933Z,97805.91
2024-04-21T14:53:26.375Z,97796.41
2024-04-21T14:55:57.220Z,97794.69
2024-04-21T14:58:24.590Z,97798.59
2024-04-21T15:00:51.881Z,97805.56
2024-04-21T15:03:19.249Z,97807.22
2024-04-21T15:05:46.515Z,97807.75
2024-04-21T15:08:13.700Z,97810.72
2024-04-21T15:10:40.917Z,97815.09
2024-04-21T15:13:08.131Z,97822.03
2024-04-21T15:15:35.285Z,97825.09
2024-04-21T15:18:02.657Z,97818.88
2024-04-21T15:20:29.882Z,97824.34
2024-04-21T15:22:57.074Z,97829.00
2024-04-21T15:25:24.401Z,97825.81
2024-04-21T15:27:54.309Z,97828.25
2024-04-21T15:30:22.043Z,97827.09
2024-04-21T15:32:49.466Z,97830.75
2024-04-21T15:35:16.952Z,97826.84
2024-04-21T15:37:44.272Z,97836.06
2024-04-21T15:40:13.688Z,97836.69
2024-04-21T15:42:41.482Z,97841.84
2024-04-21T15:45:09.279Z,97843.34
2024-04-21T15:47:36.831Z,97848.78
2024-04-21T15:50:04.904Z,97843.41
2024-04-21T15:52:32.259Z,97845.03
2024-04-21T15:55:01.033Z,97850.16
2024-04-21T15:57:28.949Z,97840.06
2024-04-21T15:59:56.235Z,97854.50
2024-04-21T16:02:23.448Z,97855.59
2024-04-21T16:04:50.708Z,97855.63
2024-04-21T16:07:19.507Z,97860.53
2024-04-21T16:09:46.987Z,97859.97
2024-04-21T16:12:14.140Z,97858.41
2024-04-21T16:14:41.308Z,97860.53
2024-04-21T16:17:09.049Z,97868.44
2024-04-21T16:19:36.355Z,97853.91
2024-04-21T16:22:03.664Z,97853.38
2024-04-21T16:24:30.903Z,97856.94
2024-04-21T16:26:58.036Z,97855.81
2024-04-21T16:29:25.201Z,97856.59
2024-04-21T16:31:52.342Z,97856.38
2024-04-21T16:34:19.765Z,97860.13
2024-04-21T16:36:47.045Z,97856.13
2024-04-21T16:39:14.427Z,97857.38
2024-04-21T16:41:41.839Z,97850.63
2024-04-21T16:44:09.313Z,97849.25
2024-04-21T16:46:40.861Z,97855.25
2024-04-21T16:49:08.499Z,97855.03
2024-04-21T16:51:35.852Z,97863.81
2024-04-21T16:54:03.253Z,97870.91
2024-04-21T16:56:34.942Z,97866.44
2024-04-21T16:59:02.579Z,97869.97
2024-04-21T17:01:30.014Z,97870.25
2024-04-21T17:03:57.753Z,97875.47
2024-04-21T17:06:26.346Z,97874.59
2024-04-21T17:08:54.382Z,97874.84
2024-04-21T17:11:21.788Z,97872.94
2024-04-21T17:13:49.476Z,97881.38
2024-04-21T17:16:17.068Z,97873.47
2024-04-21T17:18:45.149Z,97884.72
2024-04-21T17:21:12.762Z,97882.75
2024-04-21T17:23:40.027Z,97880.19
2024-04-21T17:26:07.272Z,97880.88
2024-04-21T17:28:34.532Z,97877.84
2024-04-21T17:31:01.797Z,97883.22
2024-04-21T17:33:29.135Z,97881.88
2024-04-21T17:35:56.349Z,97886.41
2024-04-21T17:38:23.991Z,97892.44
2024-04-21T17:40:52.214Z,97889.78
2024-04-21T17:43:19.402Z,97891.06
2024-04-21T17:45:46.823Z,97891.41
2024-04-21T17:48:14.546Z,97891.53
2024-04-21T17:50:41.742Z,97899.19
2024-04-21T17:53:08.902Z,97894.81
2024-04-21T17:55:36.178Z,97901.63
2024-04-21T17:58:03.398Z,97901.91
2024-04-21T18:00:30.926Z,97904.09
2024-04-21T18:02:58.391Z,97901.13
2024-04-21T18:05:25.596Z,97907.63
2024-04-21T18:07:55.640Z,97909.31
2024-04-21T18:10:23.520Z,97906.28
2024-04-21T18:12:50.753Z,97909.56
2024-04-21T18:15:17.936Z,97910.53
2024-04-21T18:17:45.101Z,97912.38
2024-04-21T18:20:12.290Z,97926.84
2024-04-21T18:22:39.860Z,97925.75
2024-04-21T18:25:07.610Z,97925.75
2024-04-21T18:27:34.846Z,97912.28
2024-04-21T18:30:02.202Z,97928.41
2024-04-21T18:32:29.567Z,97922.06
2024-04-21T18:34:56.847Z,97930.63
2024-04-21T18:37:24.026Z,97925.97
2024-04-21T18:39:51.351Z,97922.97
2024-04-21T18:42:19.029Z,97930.41
2024-04-21T18:44:51.481Z,97927.91
2024-04-21T18:47:18.876Z,97925.72
2024-04-21T18:49:46.175Z,97934.75
2024-04-21T18:52:13.448Z,97932.53
2024-04-21T18:54:41.002Z,97940.03
2024-04-21T18:57:08.162Z,97932.91
2024-04-21T18:59:38.908Z,97942.97
2024-04-21T19:02:14.352Z,97939.94
2024-04-21T19:04:41.620Z,97938.34
2024-04-21T19:07:08.842Z,97940.00
2024-04-21T19:09:36.513Z,97946.78
2024-04-21T19:12:03.979Z,97946.38
2024-04-21T19:14:31.424Z,97938.38
2024-04-21T19:16:58.936Z,97950.91
2024-04-21T19:19:26.407Z,97937.00
2024-04-21T19:21:53.768Z,97940.53
2024-04-21T19:24:21.102Z,97933.75
2024-04-21T19:26:48.293Z,97932.72
2024-04-21T19:29:15.455Z,97943.06
2024-04-21T19:31:42.641Z,97936.75
2024-04-21T19:34:09.868Z,97936.72
2024-04-21T19:36:37.075Z,97940.31
2024-04-21T19:39:04.267Z,97942.22
2024-04-21T19:41:31.441Z,97948.81
2024-04-21T19:43:58.599Z,97940.84
2024-04-21T19:46:26.788Z,97942.97
2024-04-21T19:48:54.126Z,97945.22
2024-04-21T19:51:21.389Z,97947.69
2024-04-21T19:53:48.579Z,97949.66
2024-04-21T19:56:17.796Z,97951.28
2024-04-21T19:58:45.109Z,97958.94
2024-04-21T20:01:12.522Z,97956.47
2024-04-21T20:03:39.824Z,97958.94
2024-04-21T20:06:13.561Z,97961.94
2024-04-21T20:08:40.722Z,97954.28
2024-04-21T20:11:11.755Z,97960.06
2024-04-21T20:13:39.130Z,97960.84
2024-04-21T20:16:25.889Z,97966.88
2024-04-21T20:18:54.261Z,97964.16
2024-04-21T20:21:21.469Z,97964.94
2024-04-21T20:23:48.642Z,97972.06
2024-04-21T20:26:19.169Z,97963.06
2024-04-21T20:28:47.251Z,97962.53
2024-04-21T20:31:16.419Z,97967.13
2024-04-21T20:33:48.586Z,97962.25
2024-04-21T20:36:25.527Z,97978.06
2024-04-21T20:38:54.785Z,97970.41
2024-04-21T20:41:22.744Z,97973.41
2024-04-21T20:43:51.732Z,97973.69
2024-04-21T20:46:23.524Z,97978.34
2024-04-21T20:48:51.998Z,97981.91
2024-04-21T20:51:19.180Z,97979.13
2024-04-21T20:53:46.581Z,97972.31
2024-04-21T20:56:14.290Z,97977.75
2024-04-21T20:58:50.075Z,97974.75
2024-04-21T21:01:20.403Z,97985.13
2024-04-21T21:03:49.837Z,97976.09
2024-04-21T21:06:17.212Z,97973.09
2024-04-21T21:08:46.358Z,97967.34
2024-04-21T21:11:14.029Z,97974.19
2024-04-21T21:13:41.546Z,97976.94
2024-04-21T21:16:08.730Z,97979.91
2024-04-21T21:18:36.098Z,97988.69
2024-04-21T21:21:03.387Z,97980.44
2024-04-21T21:23:30.758Z,97984.59
2024-04-21T21:25:58.660Z,97986.78
2024-04-21T21:28:25.895Z,97984.06
2024-04-21T21:30:53.075Z,97980.22
2024-04-21T21:33:20.454Z,97991.41
2024-04-21T21:35:57.389Z,97998.22
2024-04-21T21:38:29.855Z,97995.50
2024-04-21T21:40:57.647Z,97998.75
2024-04-21T21:43:25.614Z,97993.81
2024-04-21T21:45:53.075Z,98002.50
2024-04-21T21:48:20.323Z,97997.91
2024-04-21T21:50:47.559Z,97996.59
2024-04-21T21:53:14.726Z,98005.91
2024-04-21T21:55:42.633Z,97997.97
2024-04-21T21:58:10.266Z,98021.72
2024-04-21T22:00:38.350Z,98008.91
2024-04-21T22:03:05.951Z,98016.28
2024-04-21T22:05:33.487Z,98015.72
2024-04-21T22:08:00.705Z,98019.53
2024-04-21T22:10:28.560Z,98025.28
2024-04-21T22:12:56.892Z,98029.59
2024-04-21T22:15:24.038Z,98019.25
2024-04-21T22:17:51.382Z,98026.63
2024-04-21T22:20:20.073Z,98025.00
2024-04-21T22:22:50.717Z,98030.44
2024-04-21T22:25:19.548Z,98034.84
2024-04-21T22:27:46.756Z,98031.53
2024-04-21T22:30:13.920Z,98035.31
2024-04-21T22:32:42.589Z,98042.38
2024-04-21T22:35:09.890Z,98026.59
2024-04-21T22:37:37.105Z,98030.72
2024-04-21T22:40:04.679Z,98035.06
2024-04-21T22:42:31.992Z,98029.38
2024-04-21T22:44:59.247Z,98036.47
2024-04-21T22:47:26.531Z,98031.56
2024-04-21T22:49:54.124Z,98025.03
2024-04-21T22:52:23.734Z,98033.22
2024-04-21T22:54:51.133Z,98039.41
2024-04-21T22:57:18.308Z,98033.63
2024-04-21T22:59:45.467Z,98037.31
2024-04-21T23:02:12.667Z,98042.31
2024-04-21T23:04:39.905Z,98041.06
2024-04-21T23:07:07.482Z,98036.97
2024-04-21T23:09:34.782Z,98040.81
2024-04-21T23:12:01.997Z,98038.91
2024-04-21T23:14:29.229Z,98041.13
2024-04-21T23:16:56.411Z,98046.53
2024-04-21T23:19:23.625Z,98050.41
2024-04-21T23:21:50.817Z,98046.81
2024-04-21T23:24:17.985Z,98047.94
2024-04-21T23:26:45.141Z,98049.00
2024-04-21T23:29:12.324Z,98046.03
2024-04-21T23:31:39.548Z,98046.50
2024-04-21T23:34:08.703Z,98056.31
2024-04-21T23:36:36.105Z,98052.00
2024-04-21T23:39:03.461Z,98055.84
2024-04-21T23:41:30.688Z,98052.81
2024-04-21T23:43:57.917Z,98045.72
2024-04-21T23:46:25.170Z,98049.53
2024-04-21T23:48:52.363Z,98045.75
2024-04-21T23:51:19.515Z,98054.47
2024-04-21T23:53:46.713Z,98042.44
2024-04-21T23:56:13.968Z,98036.72
2024-04-21T23:58:41.171Z,98044.63
